LFPO/ORY METAR and TAF weather

Enter ICAO airport designator
Station Type Date Time Source
LFPO METAR 2019/02/16 01:30 UTC NOAA

LFPO 160130Z 21002KT CAVOK 01/00 Q1027 NOSIG


Station Type Date Time Source
LFPO Decoded METAR 2019/02/16 01:30 UTC NOAA

Paris-Orly, France (LFPO) 48-44N 002-24E 96M
Feb 15, 2019 - 08:30 PM EST / 2019.02.16 0130 UTC
Wind: from the SSW (210 degrees) at 2 MPH (2 KT):0
Visibility: greater than 7 mile(s):0
Temperature: 33 F (1 C)
Dew Point: 32 F (0 C)
Relative Humidity: 93%
Pressure (altimeter): 30.33 in. Hg (1027 hPa)
ob: LFPO 160130Z 21002KT CAVOK 01/00 Q1027 NOSIG
cycle: 1

Station Type Date Time Source
LFPO TAF 2019/02/16 00:58 UTC NOAA

TAF
AMD LFPO 160039Z 1600/1706 15004KT CAVOK PROB40
TEMPO 1601/1610 3000 BR PROB30
TEMPO 1603/1609 0800 FG VV/// PROB40
TEMPO 1700/1706 3000 BR


Example: see airport list